Erste Mannschaft 2012/13

Kreisklasse Kus-KL Süd

FC Germania Hütschenhausen

Spiele

12. Spieltag

Sa, 27.10. 18:00  1. FC Akspor Landstuhl - SpVgg Schrollbach-Obm2:6(15. Platz) (4. Platz)Landstuhl Kunstrasenpl. SR: Nagel, Gerhard
So, 28.10. 13:15  SV Steinwenden II - SV Neumühle5:1(3. Platz) (6. Platz)Steinwenden Rasenplatz SR: Mootz, Norbert
So, 28.10. 15:00  SV Spesbach - FV Linden0:4(2. Platz) (1. Platz)Spesbach Rasenplatz SR: Bottelberger, Günter
So, 28.10. 15:00  SV Hauptstuhl - SV Schmittweiler1:6(10. Platz) verbessert (12. auf 11.)Hauptstuhl Hartplatz SR: Klemm, Paul-Heinz
So, 28.10. 15:00  FC Mittelbrunn - TuS Hohenecken II0:1(14. Platz) (13. Platz)Mittelbrunn Rasenplatz SR: Heil, Stefan
So, 28.10. 16:00  SV Sand - FC Germania Hütschenhausen1:1(9. Platz) (8. Platz)Sand/Schönenberg-Kübelberg Rasenplatz SR: Braun, Karl-Heinz
Mi, 08.05. 19:00  SV Schopp II - FSV Krickenbach6:3verschlechtert (11. auf 12.) (5. Platz)Schopp Rasenplatz SR: Strasser, Harry
So, 28.10. —:—  SC Vogelbach - spielfrei:-- --

Gesamttabelle

Stand: 2013-05-25 20:27ASUNTGDP
1.unverändert zum Vortag(1.)FV Linden12110153163733
2.unverändert zum Vortag(2.)SV Spesbach1292150212929
3.unverändert zum Vortag(3.)SV Steinwenden II1191163125128
4.unverändert zum Vortag(4.)SpVgg Schrollbach-Obm1181236171925
5.unverändert zum Vortag(5.)FSV Krickenbach127144637922
6.unverändert zum Vortag(6.)SV Neumühle115152338-1516
7.unverändert zum Vortag(7.)SC Vogelbach114254334914
8.unverändert zum Vortag(8.)FC Germania Hütschenhausen114253632414
9.unverändert zum Vortag(9.)SV Sand113443025513
10.unverändert zum Vortag(10.)SV Hauptstuhl113262633-711
11.verbessert(12.)SV Schmittweiler113172234-1210
12.verschlechtert(11.)SV Schopp II113172942-1310
13.unverändert zum Vortag(13.)TuS Hohenecken II113171336-2310
14.unverändert zum Vortag(14.)FC Mittelbrunn111191457-434
15.unverändert zum Vortag(15.)1. FC Akspor Landstuhl1110101868-503
  • Gerechtes Remis

    Von James Barrante.

    Bei fünf Grad Außentemperatur zeugten die grauen Langarmtrikots der Germania vom Ende der Sommerzeit. Dennoch bot sich den Zuschauern von Anfang ein offener Schlagabtausch, in dem sich keiner der beiden Kontrahenten etwas schenkte. Dabei spielten zahlreiche Zweikämpfe eine Rolle, hüben wie drüben kam es zu Szenen in den Sechzehnmeterräumen, die zu keinem Tor führten, zwischendurch war es auch einfach nur Gebolze. Beide Mannschaften waren auf Fehler des jeweiligen anderen aus, und hier hatte Sand nach 18 Minuten Glück, als eine Unachtsamkeit in der Hütschenhauser Defensive zum 1:0 für die Gastgeber führte. Matthias Bernd war der Torschütze. Die Germania kam immer besser ins Spiel, Challil Kessler führte einen Ball nach dem anderen auf das Sand'sche Tor. Daran sollte auch die Halbzeitunterbrechung nichts ändern, wobei Sand bei den Kontern stets gefährlich blieb.

    In einer weiteren Hütschenhauser Vorwärtsbewegung kam es drei Minuten nach Wiederanpfiff zu einem Foul an Bekir Degirmenci, der heute zum zweiten mal in Folge von Anfang an seine Mannschaft unterstützte. Der Gefoulte konnte an aussichtsreicher Position Frontrunner Challil Kessler ins Visier nehmen, ließ den mit viel Effet geschlagenen Ball 25 Meter überbrücken, woraufhin Kessler aus der Zange des herausgeeilten Torwarts und eines Abwehrspielers mit einer gekonnten Direktabnahme ins lange Eck egalisieren konnte. Die Germania sah sich mit ihrer anhaltend geschlossenen Leistung nun im Aufwind, wollte noch den Sieg einfahren, hatte aber leider kein Glück im Abschluß. So blieb es am Ende bei diesem doch gerechtfertigten 1:1-Unentschieden, gegen dessen Ende man auf dem Rasenplatz trotz eingeschalteten Flutlichts weniger erkennen konnte als nachts auf der Pariser Straße bei Ausfall der Laternen.

    Am nächsten Sonntag steht mit dem 1. FC Mittelbrunn ein Gegner ins Haus, bei dem die Torausbeute der Germanen hoffentlich wieder besser ausfallen wird.

    Für die Germania: Kohlhund - Beck - Förster, M. Schneider ©, Lenhardt - Reichow, D. Dirlein, Horr - Degirmenci (80' A. Schott) - Kulig (55' Cetecioglu), Kessler.

    Tore: 0:1 Bernd (18'); 1:1 Kessler (48', Degirmenci/FS).
    SR: Karl-Heinz Braun, SV Wahnwegen. Zuschauer: 40.
    Sonntag, 28.10.2012.

    2012-10-28

42 Bilder

  • [57k8] 2012-10-28 15:59:16, 1667806 Bytes
  • [wer9] 2012-10-28 15:59:41, 1276867 Bytes
  • [58aq] 2012-10-28 16:00:00, 1379990 Bytes
  • [4g3d] 2012-10-28 16:00:24, 1128918 Bytes
  • [xyv9] 2012-10-28 16:00:29, 946288 Bytes
  • [v6fq] 2012-10-28 16:03:48, 1549977 Bytes
  • [5l7x] 2012-10-28 16:04:51, 1099342 Bytes
  • [1c9a] 2012-10-28 16:05:17, 1142206 Bytes
  • [10bk] 2012-10-28 16:05:22, 1287648 Bytes
  • [4l3g] 2012-10-28 16:06:01, 1683817 Bytes
  • [kak5] 2012-10-28 16:06:04, 1429937 Bytes
  • [g07x] 2012-10-28 16:07:31, 1263830 Bytes
  • [xz1h] 2012-10-28 16:07:35, 1066446 Bytes
  • [z3ry] 2012-10-28 16:08:40, 1389219 Bytes
  • [3ma4] 2012-10-28 16:09:16, 1121124 Bytes
  • [16be] 2012-10-28 16:12:07, 1240050 Bytes
  • [tkz3] 2012-10-28 16:18:07, 1483258 Bytes
  • [6l4y] 2012-10-28 16:18:13, 1562747 Bytes
  • [11z9] 2012-10-28 16:24:55, 1405867 Bytes
  • [7ue4] 2012-10-28 16:27:02, 1082781 Bytes
  • [8dbp] 2012-10-28 16:27:06, 1322259 Bytes
  • [7k79] 2012-10-28 16:29:00, 1157248 Bytes
  • [1bye] 2012-10-28 16:29:20, 1270357 Bytes
  • [g6kc] 2012-10-28 16:29:26, 846894 Bytes
  • [83c3] 2012-10-28 16:29:37, 888290 Bytes
  • [575y] 2012-10-28 16:32:11, 1277119 Bytes
  • [akn0] 2012-10-28 16:36:08, 1270416 Bytes
  • [x1tg] 2012-10-28 16:38:49, 1623569 Bytes
  • [10wl] 2012-10-28 16:59:22, 1210952 Bytes
  • [130n] 2012-10-28 16:59:24, 1406131 Bytes
  • [zp4m] 2012-10-28 16:59:25, 1371697 Bytes
  • [bz4k] 2012-10-28 16:59:26, 1230439 Bytes
  • [19dh] 2012-10-28 16:59:26, 1613579 Bytes
  • [r0gy] 2012-10-28 16:59:26, 1446151 Bytes
  • [1a7r] 2012-10-28 16:59:33, 1404288 Bytes
  • [rfv4] 2012-10-28 16:59:46, 1499267 Bytes
  • [x1py] 2012-10-28 16:59:47, 1294194 Bytes
  • [1y0u] 2012-10-28 17:05:19, 1962360 Bytes
  • [n0ab] 2012-10-28 17:09:00, 1415694 Bytes
  • [54dq] 2012-10-28 17:10:03, 1286261 Bytes
  • [18ck] 2012-10-28 17:12:09, 1170117 Bytes
  • [hrl0] 2012-10-28 17:17:34, 1351056 Bytes


JFV Westpfalz e. V. © MMX–MMXVI.  Alle Rechte vorbehalten.  Impressum.

Vorstand: Harald Müller (Vorsitzender). Ulrich Hillger. Harald Trautmann. Hakan Güler. James Barrante.

CPU-Zeit: 0,0424 s  ·  Cache: 2017-06-29T17:59:14+02:00   e7aa9334ae371e462a5ece8f911a0585